createdAt,value
2022-08-11T00:01:59.057Z,102651.69
2022-08-11T00:04:27.744Z,102649.72
2022-08-11T00:06:54.993Z,102653.69
2022-08-11T00:09:39.715Z,102641.19
2022-08-11T00:12:14.683Z,102652.19
2022-08-11T00:14:42.764Z,102636.47
2022-08-11T00:17:13.974Z,102639.47
2022-08-11T00:20:13.769Z,102632.47
2022-08-11T00:22:33.106Z,102632.94
2022-08-11T00:25:08.497Z,102632.19
2022-08-11T00:27:36.662Z,102625.63
2022-08-11T00:30:06.211Z,102624.09
2022-08-11T00:32:34.047Z,102624.09
2022-08-11T00:35:54.680Z,102621.34
2022-08-11T00:37:51.534Z,102631.13
2022-08-11T00:40:33.552Z,102631.13
2022-08-11T00:43:10.714Z,102628.06
2022-08-11T00:46:16.544Z,102632.03
2022-08-11T00:48:50.378Z,102637.53
2022-08-11T00:51:56.625Z,102632.03
2022-08-11T00:54:33.113Z,102632.50
2022-08-11T00:57:37.764Z,102628.53
2022-08-11T01:00:17.018Z,102623.97
2022-08-11T01:03:13.462Z,102638.91
2022-08-11T01:06:08.083Z,102638.91
2022-08-11T01:08:46.506Z,102640.91
2022-08-11T01:11:34.329Z,102646.13
2022-08-11T01:14:40.183Z,102643.38
2022-08-11T01:17:31.310Z,102643.84
2022-08-11T01:20:48.374Z,102643.06
2022-08-11T01:23:36.922Z,102640.31
2022-08-11T01:26:21.968Z,102641.25
2022-08-11T01:29:02.226Z,102645.50
2022-08-11T01:32:21.163Z,102644.00
2022-08-11T01:35:06.846Z,102638.03
2022-08-11T01:38:08.127Z,102642.50
2022-08-11T01:41:51.966Z,102640.94
2022-08-11T01:44:55.401Z,102631.19
2022-08-11T01:47:52.854Z,102645.66
2022-08-11T01:50:38.654Z,102640.66
2022-08-11T01:53:37.490Z,102644.63
2022-08-11T01:56:28.249Z,102640.81
2022-08-11T01:59:23.132Z,102630.59
2022-08-11T02:02:20.695Z,102641.56
2022-08-11T02:05:03.117Z,102643.56
2022-08-11T02:08:18.912Z,102645.53
2022-08-11T02:11:28.063Z,102633.78
2022-08-11T02:14:07.808Z,102640.06
2022-08-11T02:16:55.495Z,102635.81
2022-08-11T02:19:56.897Z,102640.06
2022-08-11T02:22:47.941Z,102633.06
2022-08-11T02:25:37.117Z,102629.97
2022-08-11T02:28:27.063Z,102629.53
2022-08-11T02:32:14.920Z,102633.78
2022-08-11T02:34:18.602Z,102630.47
2022-08-11T02:37:16.028Z,102624.47
2022-08-11T02:39:59.445Z,102628.47
2022-08-11T02:42:38.390Z,102628.47
2022-08-11T02:45:17.557Z,102622.97
2022-08-11T02:48:24.695Z,102626.47
2022-08-11T02:51:23.406Z,102632.44
2022-08-11T02:54:09.832Z,102628.31
2022-08-11T02:56:50.185Z,102622.84
2022-08-11T02:59:51.854Z,102634.59
2022-08-11T03:02:28.181Z,102628.63
2022-08-11T03:04:57.672Z,102626.34
2022-08-11T03:07:55.159Z,102622.38
2022-08-11T03:10:32.717Z,102627.41
2022-08-11T03:13:47.083Z,102626.34
2022-08-11T03:16:45.722Z,102624.84
2022-08-11T03:19:18.399Z,102613.84
2022-08-11T03:22:02.774Z,102621.75
2022-08-11T03:24:48.689Z,102628.50
2022-08-11T03:27:39.269Z,102625.31
2022-08-11T03:30:17.326Z,102623.75
2022-08-11T03:33:35.535Z,102625.75
2022-08-11T03:36:08.333Z,102625.31
2022-08-11T03:39:18.013Z,102620.41
2022-08-11T03:42:05.892Z,102619.50
2022-08-11T03:44:52.262Z,102624.22
2022-08-11T03:47:39.983Z,102624.22
2022-08-11T03:50:25.026Z,102633.25
2022-08-11T03:53:05.278Z,102628.66
2022-08-11T03:55:58.380Z,102626.72
2022-08-11T03:58:46.588Z,102616.16
2022-08-11T04:01:29.559Z,102623.63
2022-08-11T04:04:14.503Z,102621.63
2022-08-11T04:07:02.077Z,102620.59
2022-08-11T04:09:55.832Z,102623.34
2022-08-11T04:12:47.743Z,102617.50
2022-08-11T04:16:11.777Z,102622.59
2022-08-11T04:19:07.081Z,102623.00
2022-08-11T04:21:52.442Z,102620.75
2022-08-11T04:24:37.952Z,102619.53
2022-08-11T04:27:36.815Z,102619.97
2022-08-11T04:30:48.918Z,102623.50
2022-08-11T04:34:00.568Z,102625.47
2022-08-11T04:37:13.965Z,102623.78
2022-08-11T04:39:49.661Z,102629.75
2022-08-11T04:42:53.606Z,102622.72
2022-08-11T04:46:07.881Z,102622.44
2022-08-11T04:49:33.900Z,102625.19
2022-08-11T04:53:13.612Z,102618.63
2022-08-11T04:56:22.020Z,102620.28
2022-08-11T04:59:25.807Z,102614.06
2022-08-11T05:02:19.573Z,102612.53
2022-08-11T05:05:04.452Z,102608.09
2022-08-11T05:08:08.525Z,102623.03
2022-08-11T05:11:00.514Z,102617.53
2022-08-11T05:13:49.569Z,102616.34
2022-08-11T05:16:38.516Z,102614.06
2022-08-11T05:19:23.591Z,102615.56
2022-08-11T05:22:16.204Z,102620.78
2022-08-11T05:25:04.375Z,102623.38
2022-08-11T05:27:56.956Z,102622.59
2022-08-11T05:30:47.897Z,102614.19
2022-08-11T05:34:11.034Z,102616.16
2022-08-11T05:36:46.794Z,102625.34
2022-08-11T05:39:36.872Z,102619.38
2022-08-11T05:42:30.149Z,102624.88
2022-08-11T05:45:24.041Z,102625.19
2022-08-11T05:48:09.495Z,102628.69
2022-08-11T05:50:55.623Z,102634.63
2022-08-11T05:53:45.927Z,102624.72
2022-08-11T05:56:18.429Z,102628.22
2022-08-11T05:58:50.852Z,102632.50
2022-08-11T06:01:33.372Z,102629.25
2022-08-11T06:04:15.775Z,102626.25
2022-08-11T06:07:02.863Z,102629.25
2022-08-11T06:09:32.835Z,102637.34
2022-08-11T06:12:17.134Z,102627.91
2022-08-11T06:14:46.151Z,102636.75
2022-08-11T06:17:13.870Z,102631.72
2022-08-11T06:19:42.690Z,102633.09
2022-08-11T06:22:12.125Z,102630.63
2022-08-11T06:24:50.969Z,102635.66
2022-08-11T06:27:26.576Z,102636.09
2022-08-11T06:29:56.872Z,102642.66
2022-08-11T06:32:26.030Z,102635.47
2022-08-11T06:34:59.629Z,102635.47
2022-08-11T06:38:02.424Z,102637.03
2022-08-11T06:40:43.964Z,102632.88
2022-08-11T06:43:22.969Z,102631.94
2022-08-11T06:45:52.106Z,102634.53
2022-08-11T06:48:21.746Z,102638.63
2022-08-11T06:51:11.979Z,102636.50
2022-08-11T06:53:56.180Z,102653.88
2022-08-11T06:57:26.276Z,102641.31
2022-08-11T07:00:03.287Z,102637.91
2022-08-11T07:02:37.097Z,102635.00
2022-08-11T07:05:11.645Z,102645.03
2022-08-11T07:08:35.827Z,102632.38
2022-08-11T07:11:36.575Z,102632.97
2022-08-11T07:14:23.056Z,102631.56
2022-08-11T07:16:51.589Z,102631.34
2022-08-11T07:19:42.736Z,102620.84
2022-08-11T07:22:29.225Z,102621.16
2022-08-11T07:25:19.774Z,102621.91
2022-08-11T07:28:08.550Z,102617.59
2022-08-11T07:30:39.783Z,102612.59
2022-08-11T07:33:07.336Z,102616.13
2022-08-11T07:35:43.014Z,102622.69
2022-08-11T07:38:22.073Z,102614.69
2022-08-11T07:40:50.637Z,102614.69
2022-08-11T07:43:17.644Z,102620.50
2022-08-11T07:46:04.412Z,102619.28
2022-08-11T07:48:51.757Z,102625.81
2022-08-11T07:51:40.361Z,102619.09
2022-08-11T07:54:16.483Z,102625.38
2022-08-11T07:56:54.923Z,102619.38
2022-08-11T08:00:03.760Z,102627.16
2022-08-11T08:02:50.490Z,102631.13
2022-08-11T08:05:36.867Z,102627.47
2022-08-11T08:08:22.767Z,102628.22
2022-08-11T08:11:08.626Z,102628.22
2022-08-11T08:13:54.498Z,102625.75
2022-08-11T08:16:39.859Z,102624.53
2022-08-11T08:19:06.685Z,102637.34
2022-08-11T08:21:33.504Z,102627.41
2022-08-11T08:24:00.910Z,102629.19
2022-08-11T08:26:51.796Z,102625.25
2022-08-11T08:29:38.614Z,102625.50
2022-08-11T08:32:06.874Z,102627.34
2022-08-11T08:34:36.918Z,102630.09
2022-08-11T08:37:16.113Z,102634.63
2022-08-11T08:39:53.403Z,102627.69
2022-08-11T08:42:26.469Z,102632.00
2022-08-11T08:45:09.090Z,102621.25
2022-08-11T08:47:36.206Z,102623.09
2022-08-11T08:50:19.576Z,102625.38
2022-08-11T08:52:54.430Z,102624.44
2022-08-11T08:55:22.065Z,102621.94
2022-08-11T08:57:51.304Z,102620.72
2022-08-11T09:00:22.978Z,102612.75
2022-08-11T09:02:50.438Z,102611.78
2022-08-11T09:05:19.223Z,102602.59
2022-08-11T09:07:51.090Z,102606.41
2022-08-11T09:10:19.972Z,102603.19
2022-08-11T09:12:48.208Z,102606.97
2022-08-11T09:15:19.421Z,102598.22
2022-08-11T09:17:48.935Z,102608.28
2022-08-11T09:20:26.906Z,102597.59
2022-08-11T09:24:06.827Z,102592.63
2022-08-11T09:26:22.251Z,102596.41
2022-08-11T09:28:58.123Z,102593.97
2022-08-11T09:31:26.794Z,102593.00
2022-08-11T09:33:55.277Z,102592.53
2022-08-11T09:36:40.886Z,102593.13
2022-08-11T09:39:26.466Z,102592.91
2022-08-11T09:42:01.217Z,102581.69
2022-08-11T09:44:48.908Z,102577.22
2022-08-11T09:47:31.654Z,102576.75
2022-08-11T09:50:00.687Z,102577.03
2022-08-11T09:52:30.689Z,102569.81
2022-08-11T09:54:59.031Z,102562.59
2022-08-11T09:57:44.738Z,102559.38
2022-08-11T10:00:14.216Z,102556.09
2022-08-11T10:02:53.169Z,102552.63
2022-08-11T10:05:39.790Z,102560.97
2022-08-11T10:08:11.674Z,102550.47
2022-08-11T10:10:40.081Z,102555.53
2022-08-11T10:14:31.090Z,102553.81
2022-08-11T10:16:15.160Z,102546.09
2022-08-11T10:18:52.415Z,102551.13
2022-08-11T10:21:30.218Z,102538.41
2022-08-11T10:27:03.439Z,102527.94
2022-08-11T10:29:56.529Z,102529.44
2022-08-11T10:32:57.602Z,102520.94
2022-08-11T10:35:26.855Z,102518.00
2022-08-11T10:38:06.911Z,102523.78
2022-08-11T10:40:39.190Z,102518.53
2022-08-11T10:43:10.430Z,102514.09
2022-08-11T10:46:15.666Z,102509.13
2022-08-11T10:48:42.450Z,102510.88
2022-08-11T10:51:15.090Z,102507.66
2022-08-11T10:54:04.262Z,102512.69
2022-08-11T10:56:53.759Z,102508.47
2022-08-11T10:59:20.769Z,102509.50
2022-08-11T11:01:48.443Z,102505.03
2022-08-11T11:04:17.452Z,102507.56
2022-08-11T11:07:13.876Z,102500.06
2022-08-11T11:09:52.715Z,102501.56
2022-08-11T11:13:00.201Z,102502.09
2022-08-11T11:15:48.862Z,102502.19
2022-08-11T11:18:24.932Z,102490.66
2022-08-11T11:21:09.967Z,102489.69
2022-08-11T11:24:11.898Z,102487.97
2022-08-11T11:26:45.769Z,102490.22
2022-08-11T11:29:29.970Z,102490.50
2022-08-11T11:32:36.839Z,102484.25
2022-08-11T11:35:26.869Z,102492.06
2022-08-11T11:38:05.174Z,102491.06
2022-08-11T11:40:33.224Z,102493.38
2022-08-11T11:43:01.119Z,102488.81
2022-08-11T11:45:28.219Z,102489.56
2022-08-11T11:47:56.075Z,102479.75
2022-08-11T11:50:32.779Z,102478.69
2022-08-11T11:53:01.985Z,102477.41
2022-08-11T11:55:29.985Z,102477.19
2022-08-11T11:58:18.809Z,102474.97
2022-08-11T12:01:05.545Z,102474.47
2022-08-11T12:03:34.072Z,102474.25
2022-08-11T12:06:00.996Z,102468.03
2022-08-11T12:08:28.467Z,102466.31
2022-08-11T12:11:21.816Z,102474.88
2022-08-11T12:13:53.587Z,102469.09
2022-08-11T12:16:33.192Z,102468.94
2022-08-11T12:19:05.764Z,102464.47
2022-08-11T12:21:36.019Z,102459.09
2022-08-11T12:24:22.099Z,102457.66
2022-08-11T12:27:15.196Z,102458.09
2022-08-11T12:29:36.580Z,102451.97
2022-08-11T12:32:08.545Z,102451.38
2022-08-11T12:34:35.497Z,102449.88
2022-08-11T12:37:05.740Z,102451.13
2022-08-11T12:40:16.729Z,102446.81
2022-08-11T12:43:03.949Z,102434.88
2022-08-11T12:45:36.173Z,102434.69
2022-08-11T12:48:58.721Z,102436.72
2022-08-11T12:52:11.423Z,102431.63
2022-08-11T12:54:37.225Z,102422.34
2022-08-11T12:57:37.447Z,102424.94
2022-08-11T13:00:25.088Z,102418.75
2022-08-11T13:03:10.981Z,102414.09
2022-08-11T13:05:40.269Z,102414.38
2022-08-11T13:08:16.366Z,102407.09
2022-08-11T13:11:02.506Z,102405.41
2022-08-11T13:13:52.885Z,102407.13
2022-08-11T13:16:17.724Z,102402.47
2022-08-11T13:18:45.069Z,102401.78
2022-08-11T13:21:20.161Z,102404.09
2022-08-11T13:24:00.291Z,102407.69
2022-08-11T13:26:43.450Z,102401.72
2022-08-11T13:29:17.262Z,102390.94
2022-08-11T13:31:44.863Z,102394.97
2022-08-11T13:34:12.254Z,102388.47
2022-08-11T13:36:39.138Z,102391.00
2022-08-11T13:39:06.144Z,102383.47
2022-08-11T13:41:39.398Z,102382.22
2022-08-11T13:44:12.452Z,102386.47
2022-08-11T13:46:44.455Z,102383.97
2022-08-11T13:49:11.302Z,102386.72
2022-08-11T13:51:39.966Z,102377.97
2022-08-11T13:54:12.065Z,102366.91
2022-08-11T13:56:42.335Z,102372.16
2022-08-11T13:59:10.310Z,102358.84
2022-08-11T14:02:22.865Z,102368.13
2022-08-11T14:04:41.591Z,102360.59
2022-08-11T14:07:11.679Z,102366.13
2022-08-11T14:09:42.273Z,102367.13
2022-08-11T14:12:34.523Z,102355.81
2022-08-11T14:15:08.575Z,102346.00
2022-08-11T14:17:48.017Z,102351.31
2022-08-11T14:20:39.359Z,102355.03
2022-08-11T14:23:05.593Z,102362.06
2022-08-11T14:25:59.443Z,102342.00
2022-08-11T14:28:31.224Z,102342.75
2022-08-11T14:31:02.750Z,102343.78
2022-08-11T14:33:38.060Z,102338.97
2022-08-11T14:36:18.249Z,102341.72
2022-08-11T14:38:45.046Z,102331.44
2022-08-11T14:41:30.613Z,102337.72
2022-08-11T14:44:16.610Z,102326.94
2022-08-11T14:47:02.928Z,102326.44
2022-08-11T14:49:30.236Z,102331.44
2022-08-11T14:51:58.138Z,102331.44
2022-08-11T14:54:46.976Z,102339.50
2022-08-11T14:57:13.654Z,102340.53
2022-08-11T14:59:41.110Z,102336.22
2022-08-11T15:02:26.817Z,102333.47
2022-08-11T15:04:56.092Z,102328.69
2022-08-11T15:07:29.923Z,102336.59
2022-08-11T15:10:12.644Z,102341.25
2022-08-11T15:12:44.051Z,102324.88
2022-08-11T15:15:29.921Z,102318.50
2022-08-11T15:18:05.351Z,102313.66
2022-08-11T15:20:53.765Z,102316.88
2022-08-11T15:23:39.297Z,102322.72
2022-08-11T15:26:12.908Z,102319.34
2022-08-11T15:29:03.971Z,102310.88
2022-08-11T15:31:50.436Z,102310.41
2022-08-11T15:34:38.449Z,102302.91
2022-08-11T15:37:29.854Z,102305.72
2022-08-11T15:40:31.569Z,102295.16
2022-08-11T15:43:47.417Z,102293.19
2022-08-11T15:46:23.060Z,102291.41
2022-08-11T15:48:59.191Z,102292.16
2022-08-11T15:51:37.970Z,102290.16
2022-08-11T15:54:09.612Z,102288.66
2022-08-11T15:56:41.098Z,102286.41
2022-08-11T15:59:42.253Z,102287.41
2022-08-11T16:02:32.893Z,102290.16
2022-08-11T16:05:02.642Z,102290.66
2022-08-11T16:07:36.314Z,102288.09
2022-08-11T16:10:15.627Z,102291.63
2022-08-11T16:13:08.906Z,102290.13
2022-08-11T16:16:06.110Z,102281.59
2022-08-11T16:18:56.597Z,102284.81
2022-08-11T16:21:39.162Z,102287.34
2022-08-11T16:25:58.199Z,102288.81
2022-08-11T16:27:09.189Z,102288.31
2022-08-11T16:29:43.667Z,102287.56
2022-08-11T16:32:18.530Z,102285.31
2022-08-11T16:35:07.845Z,102290.53
2022-08-11T16:37:54.157Z,102289.78
2022-08-11T16:40:22.715Z,102289.53
2022-08-11T16:43:11.400Z,102284.78
2022-08-11T16:45:59.692Z,102285.75
2022-08-11T16:48:35.283Z,102288.28
2022-08-11T16:51:10.427Z,102285.25
2022-08-11T16:53:46.065Z,102284.22
2022-08-11T16:56:52.481Z,102287.47
2022-08-11T16:59:32.081Z,102287.22
2022-08-11T17:02:09.065Z,102279.16
2022-08-11T17:05:03.812Z,102276.88
2022-08-11T17:07:49.469Z,102282.13
2022-08-11T17:10:53.433Z,102285.91
2022-08-11T17:13:27.253Z,102287.91
2022-08-11T17:16:09.975Z,102279.88
2022-08-11T17:19:01.367Z,102285.38
2022-08-11T17:22:05.564Z,102285.09
2022-08-11T17:24:35.225Z,102274.56
2022-08-11T17:27:05.787Z,102282.06
2022-08-11T17:29:33.629Z,102282.28
2022-08-11T17:32:56.515Z,102276.03
2022-08-11T17:35:34.259Z,102276.25
2022-08-11T17:38:08.409Z,102279.50
2022-08-11T17:41:01.328Z,102271.75
2022-08-11T17:43:48.347Z,102270.22
2022-08-11T17:46:34.687Z,102270.72
2022-08-11T17:49:02.766Z,102273.72
2022-08-11T17:51:48.832Z,102272.91
2022-08-11T17:54:34.666Z,102279.72
2022-08-11T17:57:21.804Z,102279.44
2022-08-11T17:59:52.886Z,102279.16
2022-08-11T18:02:42.392Z,102278.41
2022-08-11T18:05:13.444Z,102278.16
2022-08-11T18:08:01.630Z,102279.41
2022-08-11T18:10:49.113Z,102280.63
2022-08-11T18:13:37.592Z,102281.63
2022-08-11T18:16:23.207Z,102282.09
2022-08-11T18:19:08.498Z,102289.59
2022-08-11T18:22:11.114Z,102288.59
2022-08-11T18:25:07.082Z,102287.56
2022-08-11T18:27:53.461Z,102294.06
2022-08-11T18:30:38.955Z,102292.56
2022-08-11T18:36:38.521Z,102295.53
2022-08-11T18:39:27.978Z,102305.03
2022-08-11T18:42:19.490Z,102306.56
2022-08-11T18:45:22.915Z,102302.03
2022-08-11T18:48:11.567Z,102295.47
2022-08-11T18:51:29.534Z,102293.19
2022-08-11T18:54:10.685Z,102297.69
2022-08-11T18:56:56.020Z,102309.94
2022-08-11T18:59:45.952Z,102307.19
2022-08-11T19:02:33.519Z,102308.19
2022-08-11T19:06:06.051Z,102313.41
2022-08-11T19:08:44.628Z,102309.91
2022-08-11T19:11:31.633Z,102308.41
2022-08-11T19:14:19.299Z,102308.88
2022-08-11T19:17:05.804Z,102311.38
2022-08-11T19:19:53.951Z,102310.59
2022-08-11T19:22:41.146Z,102303.56
2022-08-11T19:25:27.321Z,102310.81
2022-08-11T19:28:13.584Z,102314.81
2022-08-11T19:30:59.363Z,102315.59
2022-08-11T19:34:02.637Z,102316.06
2022-08-11T19:36:51.695Z,102317.31
2022-08-11T19:39:39.333Z,102320.53
2022-08-11T19:42:27.823Z,102323.50
2022-08-11T19:45:14.452Z,102322.28
2022-08-11T19:48:30.247Z,102321.25
2022-08-11T19:51:09.078Z,102316.22
2022-08-11T19:53:55.431Z,102324.19
2022-08-11T19:56:40.858Z,102325.00
2022-08-11T19:59:27.237Z,102319.16
2022-08-11T20:02:13.866Z,102318.44
2022-08-11T20:05:01.161Z,102325.94
2022-08-11T20:07:47.622Z,102314.66
2022-08-11T20:10:35.827Z,102320.63
2022-08-11T20:13:21.905Z,102317.13
2022-08-11T20:16:08.434Z,102320.63
2022-08-11T20:18:55.026Z,102316.88
2022-08-11T20:21:41.748Z,102316.06
2022-08-11T20:24:28.060Z,102320.56
2022-08-11T20:27:24.472Z,102317.06
2022-08-11T20:30:11.992Z,102325.59
2022-08-11T20:32:59.397Z,102331.59
2022-08-11T20:35:45.796Z,102328.56
2022-08-11T20:38:33.996Z,102320.53
2022-08-11T20:41:22.045Z,102332.28
2022-08-11T20:44:13.066Z,102330.03
2022-08-11T20:47:00.473Z,102329.22
2022-08-11T20:49:53.772Z,102336.00
2022-08-11T20:52:44.151Z,102339.53
2022-08-11T20:55:46.332Z,102332.97
2022-08-11T21:01:46.274Z,102336.19
2022-08-11T21:04:32.478Z,102332.69
2022-08-11T21:10:28.427Z,102337.00
2022-08-11T21:13:26.534Z,102337.19
2022-08-11T21:16:26.507Z,102336.41
2022-08-11T21:20:00.033Z,102343.13
2022-08-11T21:22:35.589Z,102348.38
2022-08-11T21:25:22.026Z,102354.66
2022-08-11T21:28:09.387Z,102355.13
2022-08-11T21:30:57.602Z,102350.88
2022-08-11T21:33:45.910Z,102350.88
2022-08-11T21:36:33.059Z,102352.84
2022-08-11T21:39:24.740Z,102345.81
2022-08-11T21:42:11.832Z,102352.84
2022-08-11T21:44:58.818Z,102356.59
2022-08-11T21:47:45.732Z,102357.09
2022-08-11T21:50:31.138Z,102353.06
2022-08-11T21:53:18.091Z,102355.06
2022-08-11T21:56:04.353Z,102361.03
2022-08-11T21:58:51.251Z,102358.28
2022-08-11T22:01:37.637Z,102356.00
2022-08-11T22:04:24.629Z,102356.78
2022-08-11T22:07:11.844Z,102358.78
2022-08-11T22:09:57.652Z,102362.03
2022-08-11T22:12:45.407Z,102365.53
2022-08-11T22:15:31.567Z,102362.03
2022-08-11T22:18:16.990Z,102365.97
2022-08-11T22:21:03.316Z,102358.22
2022-08-11T22:23:51.136Z,102364.22
2022-08-11T22:26:37.311Z,102359.19
2022-08-11T22:29:42.317Z,102359.97
2022-08-11T22:32:30.931Z,102361.47
2022-08-11T22:35:18.325Z,102357.22
2022-08-11T22:38:05.462Z,102361.16
2022-08-11T22:40:53.312Z,102359.66
2022-08-11T22:43:40.116Z,102358.16
2022-08-11T22:46:25.464Z,102356.63
2022-08-11T22:49:12.086Z,102361.38
2022-08-11T22:51:58.186Z,102357.13
2022-08-11T22:54:43.596Z,102361.88
2022-08-11T22:57:28.912Z,102365.84
2022-08-11T23:00:15.190Z,102366.59
2022-08-11T23:03:01.009Z,102363.59
2022-08-11T23:05:47.494Z,102368.78
2022-08-11T23:08:33.979Z,102360.28
2022-08-11T23:11:22.512Z,102362.84
2022-08-11T23:14:07.885Z,102357.78
2022-08-11T23:16:53.420Z,102364.03
2022-08-11T23:20:08.607Z,102365.28
2022-08-11T23:22:49.985Z,102372.03
2022-08-11T23:25:35.829Z,102371.28
2022-08-11T23:28:21.864Z,102367.78
2022-08-11T23:31:11.851Z,102370.53
2022-08-11T23:34:00.857Z,102360.00
2022-08-11T23:36:47.282Z,102358.94
2022-08-11T23:39:33.238Z,102357.72
2022-08-11T23:42:18.284Z,102360.22
2022-08-11T23:45:05.694Z,102363.72
2022-08-11T23:47:56.205Z,102359.44
2022-08-11T23:50:42.427Z,102363.41
2022-08-11T23:53:28.295Z,102363.41
2022-08-11T23:56:13.788Z,102357.16
2022-08-11T23:58:59.550Z,102361.91
